sensor_id;sensor_type;location;lat;lon;timestamp;pressure;altitude;pressure_sealevel;temperature;humidity
37634;BME280;32048;49.902;22.508;2023-02-02T00:01:40;97777.84;;;0.59;100.00
37634;BME280;32048;49.902;22.508;2023-02-02T00:04:15;97772.81;;;0.53;100.00
37634;BME280;32048;49.902;22.508;2023-02-02T00:06:43;97770.34;;;0.48;100.00
37634;BME280;32048;49.902;22.508;2023-02-02T00:09:14;97769.56;;;0.45;100.00
37634;BME280;32048;49.902;22.508;2023-02-02T00:11:43;97762.78;;;0.40;100.00
37634;BME280;32048;49.902;22.508;2023-02-02T00:14:11;97763.81;;;0.33;100.00
37634;BME280;32048;49.902;22.508;2023-02-02T00:16:45;97750.06;;;0.30;100.00
37634;BME280;32048;49.902;22.508;2023-02-02T00:19:24;97752.72;;;0.27;100.00
37634;BME280;32048;49.902;22.508;2023-02-02T00:21:56;97745.75;;;0.29;100.00
37634;BME280;32048;49.902;22.508;2023-02-02T00:24:23;97750.94;;;0.29;100.00
37634;BME280;32048;49.902;22.508;2023-02-02T00:26:53;97748.28;;;0.32;100.00
37634;BME280;32048;49.902;22.508;2023-02-02T00:29:26;97746.50;;;0.34;100.00
37634;BME280;32048;49.902;22.508;2023-02-02T00:31:54;97739.59;;;0.33;100.00
37634;BME280;32048;49.902;22.508;2023-02-02T00:34:22;97742.09;;;0.36;100.00
37634;BME280;32048;49.902;22.508;2023-02-02T00:36:49;97737.78;;;0.36;100.00
37634;BME280;32048;49.902;22.508;2023-02-02T00:39:19;97741.13;;;0.40;100.00
37634;BME280;32048;49.902;22.508;2023-02-02T00:41:47;97733.19;;;0.45;100.00
37634;BME280;32048;49.902;22.508;2023-02-02T00:44:14;97728.78;;;0.48;100.00
37634;BME280;32048;49.902;22.508;2023-02-02T00:47:00;97723.44;;;0.53;100.00
37634;BME280;32048;49.902;22.508;2023-02-02T00:49:27;97718.97;;;0.58;100.00
37634;BME280;32048;49.902;22.508;2023-02-02T00:51:55;97729.22;;;0.62;100.00
37634;BME280;32048;49.902;22.508;2023-02-02T00:54:22;97725.66;;;0.67;100.00
37634;BME280;32048;49.902;22.508;2023-02-02T00:56:49;97715.25;;;0.67;100.00
37634;BME280;32048;49.902;22.508;2023-02-02T00:59:16;97711.69;;;0.71;100.00
37634;BME280;32048;49.902;22.508;2023-02-02T01:01:43;97715.06;;;0.74;100.00
37634;BME280;32048;49.902;22.508;2023-02-02T01:04:10;97707.97;;;0.79;100.00
37634;BME280;32048;49.902;22.508;2023-02-02T01:06:37;97708.78;;;0.81;100.00
37634;BME280;32048;49.902;22.508;2023-02-02T01:09:04;97706.97;;;0.83;100.00
37634;BME280;32048;49.902;22.508;2023-02-02T01:11:32;97709.59;;;0.83;100.00
37634;BME280;32048;49.902;22.508;2023-02-02T01:13:58;97710.47;;;0.82;100.00
37634;BME280;32048;49.902;22.508;2023-02-02T01:16:26;97716.53;;;0.83;100.00
37634;BME280;32048;49.902;22.508;2023-02-02T01:18:53;97712.19;;;0.83;100.00
37634;BME280;32048;49.902;22.508;2023-02-02T01:21:21;97711.34;;;0.83;100.00
37634;BME280;32048;49.902;22.508;2023-02-02T01:23:48;97713.88;;;0.85;100.00
37634;BME280;32048;49.902;22.508;2023-02-02T01:26:16;97715.50;;;0.89;100.00
37634;BME280;32048;49.902;22.508;2023-02-02T01:28:44;97705.13;;;0.87;100.00
37634;BME280;32048;49.902;22.508;2023-02-02T01:31:16;97704.31;;;0.85;100.00
37634;BME280;32048;49.902;22.508;2023-02-02T01:33:45;97706.06;;;0.85;100.00
37634;BME280;32048;49.902;22.508;2023-02-02T01:36:15;97699.94;;;0.87;100.00
37634;BME280;32048;49.902;22.508;2023-02-02T01:38:42;97701.66;;;0.88;100.00
37634;BME280;32048;49.902;22.508;2023-02-02T01:41:18;97699.91;;;0.89;100.00
37634;BME280;32048;49.902;22.508;2023-02-02T01:46:18;97703.53;;;0.83;100.00
37634;BME280;32048;49.902;22.508;2023-02-02T01:51:34;97709.72;;;0.79;100.00
37634;BME280;32048;49.902;22.508;2023-02-02T01:54:05;97700.44;;;0.70;100.00
37634;BME280;32048;49.902;22.508;2023-02-02T01:56:40;97697.31;;;0.59;100.00
37634;BME280;32048;49.902;22.508;2023-02-02T01:59:09;97704.47;;;0.51;100.00
37634;BME280;32048;49.902;22.508;2023-02-02T02:01:39;97695.97;;;0.46;100.00
37634;BME280;32048;49.902;22.508;2023-02-02T02:04:07;97703.09;;;0.37;100.00
37634;BME280;32048;49.902;22.508;2023-02-02T02:06:34;97698.00;;;0.34;100.00
37634;BME280;32048;49.902;22.508;2023-02-02T02:09:03;97689.53;;;0.28;100.00
37634;BME280;32048;49.902;22.508;2023-02-02T02:11:33;97693.00;;;0.27;100.00
37634;BME280;32048;49.902;22.508;2023-02-02T02:14:03;97695.53;;;0.30;100.00
37634;BME280;32048;49.902;22.508;2023-02-02T02:16:52;97695.53;;;0.30;100.00
37634;BME280;32048;49.902;22.508;2023-02-02T02:34:32;97693.75;;;0.32;100.00
37634;BME280;32048;49.902;22.508;2023-02-02T02:37:09;97689.38;;;0.34;100.00
37634;BME280;32048;49.902;22.508;2023-02-02T02:39:43;97690.25;;;0.33;100.00
37634;BME280;32048;49.902;22.508;2023-02-02T02:42:14;97689.44;;;0.31;100.00
37634;BME280;32048;49.902;22.508;2023-02-02T02:44:43;97691.09;;;0.33;100.00
37634;BME280;32048;49.902;22.508;2023-02-02T02:47:10;97685.03;;;0.34;100.00
37634;BME280;32048;49.902;22.508;2023-02-02T02:49:45;97686.59;;;0.40;100.00
37634;BME280;32048;49.902;22.508;2023-02-02T02:52:13;97687.47;;;0.40;100.00
37634;BME280;32048;49.902;22.508;2023-02-02T02:54:44;97687.47;;;0.40;100.00
37634;BME280;32048;49.902;22.508;2023-02-02T03:07:46;97676.13;;;0.43;100.00
37634;BME280;32048;49.902;22.508;2023-02-02T03:10:18;97688.34;;;0.39;100.00
37634;BME280;32048;49.902;22.508;2023-02-02T03:12:48;97686.44;;;0.45;100.00
37634;BME280;32048;49.902;22.508;2023-02-02T03:15:18;97687.19;;;0.50;100.00
37634;BME280;32048;49.902;22.508;2023-02-02T03:17:46;97684.50;;;0.53;100.00
37634;BME280;32048;49.902;22.508;2023-02-02T03:20:15;97692.25;;;0.54;100.00
37634;BME280;32048;49.902;22.508;2023-02-02T03:22:42;97691.34;;;0.55;100.00
37634;BME280;32048;49.902;22.508;2023-02-02T03:25:09;97684.34;;;0.57;100.00
37634;BME280;32048;49.902;22.508;2023-02-02T03:27:38;97691.31;;;0.57;100.00
37634;BME280;32048;49.902;22.508;2023-02-02T03:30:10;97705.00;;;0.62;100.00
37634;BME280;32048;49.902;22.508;2023-02-02T03:32:38;97689.41;;;0.62;100.00
37634;BME280;32048;49.902;22.508;2023-02-02T03:35:06;97698.16;;;0.59;100.00
37634;BME280;32048;49.902;22.508;2023-02-02T03:37:33;97692.97;;;0.59;100.00
37634;BME280;32048;49.902;22.508;2023-02-02T03:40:01;97703.31;;;0.61;100.00
37634;BME280;32048;49.902;22.508;2023-02-02T03:42:28;97695.41;;;0.64;100.00
37634;BME280;32048;49.902;22.508;2023-02-02T03:44:55;97694.56;;;0.64;100.00
37634;BME280;32048;49.902;22.508;2023-02-02T03:47:22;97689.38;;;0.64;100.00
37634;BME280;32048;49.902;22.508;2023-02-02T03:49:49;97691.00;;;0.68;100.00
37634;BME280;32048;49.902;22.508;2023-02-02T03:52:16;97690.31;;;0.61;100.00
37634;BME280;32048;49.902;22.508;2023-02-02T03:54:43;97691.97;;;0.64;100.00
37634;BME280;32048;49.902;22.508;2023-02-02T03:57:10;97691.13;;;0.63;100.00
37634;BME280;32048;49.902;22.508;2023-02-02T03:59:37;97693.81;;;0.60;100.00
37634;BME280;32048;49.902;22.508;2023-02-02T04:02:04;97698.16;;;0.59;100.00
37634;BME280;32048;49.902;22.508;2023-02-02T04:04:31;97706.78;;;0.60;100.00
37634;BME280;32048;49.902;22.508;2023-02-02T04:06:58;97709.47;;;0.58;100.00
37634;BME280;32048;49.902;22.508;2023-02-02T04:09:25;97708.69;;;0.55;100.00
37634;BME280;32048;49.902;22.508;2023-02-02T04:11:53;97713.06;;;0.53;100.00
37634;BME280;32048;49.902;22.508;2023-02-02T04:14:20;97713.09;;;0.51;100.00
37634;BME280;32048;49.902;22.508;2023-02-02T04:16:47;97722.66;;;0.51;100.00
37634;BME280;32048;49.902;22.508;2023-02-02T04:19:14;97720.97;;;0.50;100.00
37634;BME280;32048;49.902;22.508;2023-02-02T04:21:41;97721.00;;;0.48;100.00
37634;BME280;32048;49.902;22.508;2023-02-02T04:24:13;97725.34;;;0.48;100.00
37634;BME280;32048;49.902;22.508;2023-02-02T04:26:41;97725.38;;;0.46;100.00
37634;BME280;32048;49.902;22.508;2023-02-02T04:29:08;97730.41;;;0.52;100.00
37634;BME280;32048;49.902;22.508;2023-02-02T04:31:35;97734.66;;;0.55;100.00
37634;BME280;32048;49.902;22.508;2023-02-02T04:34:03;97738.31;;;0.48;100.00
37634;BME280;32048;49.902;22.508;2023-02-02T04:36:29;97740.00;;;0.49;100.00
37634;BME280;32048;49.902;22.508;2023-02-02T04:38:57;97750.28;;;0.53;100.00
37634;BME280;32048;49.902;22.508;2023-02-02T04:41:24;97750.28;;;0.53;100.00
37634;BME280;32048;49.902;22.508;2023-02-02T04:43:51;97749.41;;;0.54;100.00
37634;BME280;32048;49.902;22.508;2023-02-02T04:46:18;97760.63;;;0.55;100.00
37634;BME280;32048;49.902;22.508;2023-02-02T04:48:47;97761.59;;;0.51;100.00
37634;BME280;32048;49.902;22.508;2023-02-02T04:51:14;97761.63;;;0.49;100.00
37634;BME280;32048;49.902;22.508;2023-02-02T04:53:41;97768.72;;;0.44;100.00
37634;BME280;32048;49.902;22.508;2023-02-02T04:56:15;97771.28;;;0.46;100.00
37634;BME280;32048;49.902;22.508;2023-02-02T04:58:43;97770.38;;;0.47;100.00
37634;BME280;32048;49.902;22.508;2023-02-02T05:01:15;97772.97;;;0.47;100.00
37634;BME280;32048;49.902;22.508;2023-02-02T05:03:43;97781.69;;;0.44;100.00
37634;BME280;32048;49.902;22.508;2023-02-02T05:06:10;97782.63;;;0.41;100.00
37634;BME280;32048;49.902;22.508;2023-02-02T05:08:41;97780.97;;;0.39;100.00
37634;BME280;32048;49.902;22.508;2023-02-02T05:11:12;97793.03;;;0.41;100.00
37634;BME280;32048;49.902;22.508;2023-02-02T05:13:47;97802.47;;;0.44;100.00
37634;BME280;32048;49.902;22.508;2023-02-02T05:16:15;97795.50;;;0.46;100.00
37634;BME280;32048;49.902;22.508;2023-02-02T05:18:42;97802.31;;;0.50;100.00
37634;BME280;32048;49.902;22.508;2023-02-02T05:21:13;97802.41;;;0.47;100.00
37634;BME280;32048;49.902;22.508;2023-02-02T05:23:41;97806.56;;;0.53;100.00
37634;BME280;32048;49.902;22.508;2023-02-02T05:26:12;97811.75;;;0.54;100.00
37634;BME280;32048;49.902;22.508;2023-02-02T05:28:42;97817.75;;;0.56;100.00
37634;BME280;32048;49.902;22.508;2023-02-02T05:31:09;97818.63;;;0.55;100.00
37634;BME280;32048;49.902;22.508;2023-02-02T05:33:36;97822.94;;;0.56;100.00
37634;BME280;32048;49.902;22.508;2023-02-02T05:36:05;97821.22;;;0.55;100.00
37634;BME280;32048;49.902;22.508;2023-02-02T05:38:33;97817.66;;;0.59;100.00
37634;BME280;32048;49.902;22.508;2023-02-02T05:41:01;97824.53;;;0.60;100.00
37634;BME280;32048;49.902;22.508;2023-02-02T05:43:30;97826.25;;;0.61;100.00
37634;BME280;32048;49.902;22.508;2023-02-02T05:45:57;97825.34;;;0.62;100.00
37634;BME280;32048;49.902;22.508;2023-02-02T05:48:25;97824.47;;;0.64;100.00
37634;BME280;32048;49.902;22.508;2023-02-02T05:51:03;97835.69;;;0.66;100.00
37634;BME280;32048;49.902;22.508;2023-02-02T05:53:32;97846.06;;;0.66;100.00
37634;BME280;32048;49.902;22.508;2023-02-02T05:55:59;97850.44;;;0.65;100.00
37634;BME280;32048;49.902;22.508;2023-02-02T05:58:26;97847.72;;;0.68;100.00
37634;BME280;32048;49.902;22.508;2023-02-02T06:00:54;97844.22;;;0.69;100.00
37634;BME280;32048;49.902;22.508;2023-02-02T06:03:22;97839.09;;;0.68;100.00
37634;BME280;32048;49.902;22.508;2023-02-02T06:05:50;97841.69;;;0.68;100.00
37634;BME280;32048;49.902;22.508;2023-02-02T06:08:17;97840.75;;;0.70;100.00
37634;BME280;32048;49.902;22.508;2023-02-02T06:10:44;97848.41;;;0.75;100.00
37634;BME280;32048;49.902;22.508;2023-02-02T06:13:11;97841.50;;;0.74;100.00
37634;BME280;32048;49.902;22.508;2023-02-02T06:15:38;97852.66;;;0.79;100.00
37634;BME280;32048;49.902;22.508;2023-02-02T06:18:05;97840.59;;;0.76;100.00
37634;BME280;32048;49.902;22.508;2023-02-02T06:20:34;97852.56;;;0.82;100.00
37634;BME280;32048;49.902;22.508;2023-02-02T06:23:01;97848.97;;;0.86;100.00
37634;BME280;32048;49.902;22.508;2023-02-02T06:25:28;97858.41;;;0.90;100.00
37634;BME280;32048;49.902;22.508;2023-02-02T06:27:57;97857.50;;;0.91;100.00
37634;BME280;32048;49.902;22.508;2023-02-02T06:30:25;97856.75;;;0.88;100.00
37634;BME280;32048;49.902;22.508;2023-02-02T06:32:53;97855.88;;;0.87;100.00
37634;BME280;32048;49.902;22.508;2023-02-02T06:35:20;97853.91;;;0.95;100.00
37634;BME280;32048;49.902;22.508;2023-02-02T06:37:47;97865.16;;;0.96;100.00
37634;BME280;32048;49.902;22.508;2023-02-02T06:40:15;97866.00;;;0.96;100.00
37634;BME280;32048;49.902;22.508;2023-02-02T06:42:42;97870.22;;;1.00;100.00
37634;BME280;32048;49.902;22.508;2023-02-02T06:45:09;97875.38;;;1.03;100.00
37634;BME280;32048;49.902;22.508;2023-02-02T06:47:37;97876.19;;;1.06;100.00
37634;BME280;32048;49.902;22.508;2023-02-02T06:50:04;97871.03;;;1.02;100.00
37634;BME280;32048;49.902;22.508;2023-02-02T06:52:31;97881.38;;;1.06;100.00
37634;BME280;32048;49.902;22.508;2023-02-02T06:54:58;97879.50;;;1.11;100.00
37634;BME280;32048;49.902;22.508;2023-02-02T06:57:25;97876.84;;;1.12;100.00
37634;BME280;32048;49.902;22.508;2023-02-02T06:59:52;97864.72;;;1.11;100.00
37634;BME280;32048;49.902;22.508;2023-02-02T07:02:20;97870.75;;;1.13;100.00
37634;BME280;32048;49.902;22.508;2023-02-02T07:04:50;97882.75;;;1.19;100.00
37634;BME280;32048;49.902;22.508;2023-02-02T07:07:17;97882.63;;;1.22;100.00
37634;BME280;32048;49.902;22.508;2023-02-02T07:09:44;97880.00;;;1.23;100.00
37634;BME280;32048;49.902;22.508;2023-02-02T07:12:11;97887.81;;;1.23;100.00
37634;BME280;32048;49.902;22.508;2023-02-02T07:14:38;97893.75;;;1.27;100.00
37634;BME280;32048;49.902;22.508;2023-02-02T07:17:05;97890.31;;;1.27;100.00
37634;BME280;32048;49.902;22.508;2023-02-02T07:19:32;97890.47;;;1.20;100.00
37634;BME280;32048;49.902;22.508;2023-02-02T07:21:59;97891.28;;;1.22;100.00
37634;BME280;32048;49.902;22.508;2023-02-02T07:24:26;97891.28;;;1.22;100.00
37634;BME280;32048;49.902;22.508;2023-02-02T07:26:53;97886.84;;;1.26;100.00
37634;BME280;32048;49.902;22.508;2023-02-02T07:29:20;97893.75;;;1.27;100.00
37634;BME280;32048;49.902;22.508;2023-02-02T07:31:48;97888.41;;;1.32;100.00
37634;BME280;32048;49.902;22.508;2023-02-02T07:34:15;97893.44;;;1.38;100.00
37634;BME280;32048;49.902;22.508;2023-02-02T07:36:42;97888.91;;;1.44;100.00
37634;BME280;32048;49.902;22.508;2023-02-02T07:39:10;97895.75;;;1.49;100.00
37634;BME280;32048;49.902;22.508;2023-02-02T07:41:37;97901.78;;;1.49;100.00
37634;BME280;32048;49.902;22.508;2023-02-02T07:44:04;97891.50;;;1.46;100.00
37634;BME280;32048;49.902;22.508;2023-02-02T07:46:33;97891.41;;;1.48;100.00
37634;BME280;32048;49.902;22.508;2023-02-02T07:49:00;97887.03;;;1.50;100.00
37634;BME280;32048;49.902;22.508;2023-02-02T07:51:28;97888.91;;;1.44;100.00
37634;BME280;32048;49.902;22.508;2023-02-02T07:53:55;97881.13;;;1.44;100.00
37634;BME280;32048;49.902;22.508;2023-02-02T07:56:26;97876.72;;;1.47;100.00
37634;BME280;32048;49.902;22.508;2023-02-02T07:58:55;97875.75;;;1.51;100.00
37634;BME280;32048;49.902;22.508;2023-02-02T08:01:24;97868.69;;;1.54;100.00
37634;BME280;32048;49.902;22.508;2023-02-02T08:03:53;97869.41;;;1.59;100.00
37634;BME280;32048;49.902;22.508;2023-02-02T08:06:23;97881.41;;;1.63;100.00
37634;BME280;32048;49.902;22.508;2023-02-02T08:08:51;97870.81;;;1.70;100.00
37634;BME280;32048;49.902;22.508;2023-02-02T08:11:20;97884.63;;;1.72;100.00
37634;BME280;32048;49.902;22.508;2023-02-02T08:13:49;97880.13;;;1.77;100.00
37634;BME280;32048;49.902;22.508;2023-02-02T08:16:18;97878.41;;;1.77;100.00
37634;BME280;32048;49.902;22.508;2023-02-02T08:18:45;97876.53;;;1.81;100.00
37634;BME280;32048;49.902;22.508;2023-02-02T08:21:13;97867.72;;;1.86;100.00
37634;BME280;32048;49.902;22.508;2023-02-02T08:23:41;97873.75;;;1.87;100.00
37634;BME280;32048;49.902;22.508;2023-02-02T08:26:20;97869.22;;;1.94;100.00
37634;BME280;32048;49.902;22.508;2023-02-02T08:28:51;97864.97;;;1.91;100.00
37634;BME280;32048;49.902;22.508;2023-02-02T08:31:24;97878.72;;;1.95;100.00
37634;BME280;32048;49.902;22.508;2023-02-02T08:33:52;97872.47;;;2.00;100.00
37634;BME280;32048;49.902;22.508;2023-02-02T08:36:22;97876.63;;;2.06;100.00
37634;BME280;32048;49.902;22.508;2023-02-02T08:38:49;97875.69;;;2.08;100.00
37634;BME280;32048;49.902;22.508;2023-02-02T08:41:19;97868.72;;;2.09;100.00
37634;BME280;32048;49.902;22.508;2023-02-02T08:43:46;97872.94;;;2.13;100.00
37634;BME280;32048;49.902;22.508;2023-02-02T08:46:17;97867.66;;;2.15;100.00
37634;BME280;32048;49.902;22.508;2023-02-02T08:48:45;97874.44;;;2.20;100.00
37634;BME280;32048;49.902;22.508;2023-02-02T08:51:14;97867.06;;;2.33;100.00
37634;BME280;32048;49.902;22.508;2023-02-02T08:53:42;97866.72;;;2.44;100.00
37634;BME280;32048;49.902;22.508;2023-02-02T08:56:15;97866.34;;;2.55;100.00
37634;BME280;32048;49.902;22.508;2023-02-02T08:58:48;97865.78;;;2.72;100.00
37634;BME280;32048;49.902;22.508;2023-02-02T09:01:20;97863.41;;;2.89;100.00
37634;BME280;32048;49.902;22.508;2023-02-02T09:03:47;97855.97;;;3.03;100.00
37634;BME280;32048;49.902;22.508;2023-02-02T09:06:17;97864.50;;;3.07;100.00
37634;BME280;32048;49.902;22.508;2023-02-02T09:08:45;97859.22;;;3.10;100.00
37634;BME280;32048;49.902;22.508;2023-02-02T09:11:15;97857.06;;;3.21;100.00
37634;BME280;32048;49.902;22.508;2023-02-02T09:13:45;97857.22;;;3.17;100.00
37634;BME280;32048;49.902;22.508;2023-02-02T09:16:14;97853.03;;;3.12;100.00
37634;BME280;32048;49.902;22.508;2023-02-02T09:18:42;97859.22;;;3.10;100.00
37634;BME280;32048;49.902;22.508;2023-02-02T09:21:13;97858.13;;;3.16;100.00
37634;BME280;32048;49.902;22.508;2023-02-02T09:23:41;97859.88;;;3.15;100.00
37634;BME280;32048;49.902;22.508;2023-02-02T09:26:12;97855.16;;;3.25;100.00
37634;BME280;32048;49.902;22.508;2023-02-02T09:28:41;97855.00;;;3.29;100.00
37634;BME280;32048;49.902;22.508;2023-02-02T09:31:09;97843.00;;;3.25;100.00
37634;BME280;32048;49.902;22.508;2023-02-02T09:33:36;97846.53;;;3.23;100.00
37634;BME280;32048;49.902;22.508;2023-02-02T09:36:10;97841.41;;;3.21;100.00
37634;BME280;32048;49.902;22.508;2023-02-02T09:38:38;97853.47;;;3.24;100.00
37634;BME280;32048;49.902;22.508;2023-02-02T09:52:17;97848.03;;;3.06;100.00
37634;BME280;32048;49.902;22.508;2023-02-02T09:54:49;97834.97;;;3.06;100.00
37634;BME280;32048;49.902;22.508;2023-02-02T09:57:22;97828.16;;;3.02;100.00
37634;BME280;32048;49.902;22.508;2023-02-02T09:59:52;97829.03;;;3.03;100.00
37634;BME280;32048;49.902;22.508;2023-02-02T10:02:23;97828.91;;;3.06;100.00
37634;BME280;32048;49.902;22.508;2023-02-02T10:04:57;97828.78;;;3.09;100.00
37634;BME280;32048;49.902;22.508;2023-02-02T10:07:34;97826.53;;;3.23;100.00
37634;BME280;32048;49.902;22.508;2023-02-02T10:10:31;97830.44;;;3.35;100.00
37634;BME280;32048;49.902;22.508;2023-02-02T10:13:00;97821.47;;;3.42;100.00
37634;BME280;32048;49.902;22.508;2023-02-02T10:15:36;97815.59;;;3.37;100.00
37634;BME280;32048;49.902;22.508;2023-02-02T10:20:54;97822.38;;;3.41;100.00
37634;BME280;32048;49.902;22.508;2023-02-02T10:28:43;97817.34;;;3.37;100.00
37634;BME280;32048;49.902;22.508;2023-02-02T10:41:55;97809.81;;;2.57;100.00
37634;BME280;32048;49.902;22.508;2023-02-02T10:46:59;97804.41;;;2.63;100.00
37634;BME280;32048;49.902;22.508;2023-02-02T10:49:33;97809.78;;;2.58;100.00
37634;BME280;32048;49.902;22.508;2023-02-02T10:54:54;97809.00;;;2.55;100.00
37634;BME280;32048;49.902;22.508;2023-02-02T10:57:49;97804.13;;;2.45;100.00
37634;BME280;32048;49.902;22.508;2023-02-02T11:03:06;97798.28;;;2.39;100.00
37634;BME280;32048;49.902;22.508;2023-02-02T11:05:35;97801.00;;;2.36;100.00
37634;BME280;32048;49.902;22.508;2023-02-02T11:08:30;97799.44;;;2.30;100.00
37634;BME280;32048;49.902;22.508;2023-02-02T11:11:12;97792.78;;;2.21;100.00
37634;BME280;32048;49.902;22.508;2023-02-02T11:16:28;97787.03;;;2.12;100.00
37634;BME280;32048;49.902;22.508;2023-02-02T11:21:49;97781.44;;;1.97;100.00
37634;BME280;32048;49.902;22.508;2023-02-02T11:24:45;97776.34;;;1.94;100.00
37634;BME280;32048;49.902;22.508;2023-02-02T11:27:26;97780.66;;;1.95;100.00
37634;BME280;32048;49.902;22.508;2023-02-02T11:29:55;97766.53;;;2.02;100.00
37634;BME280;32048;49.902;22.508;2023-02-02T11:32:33;97771.13;;;1.94;100.00
37634;BME280;32048;49.902;22.508;2023-02-02T11:37:32;97758.94;;;1.95;100.00
37634;BME280;32048;49.902;22.508;2023-02-02T11:42:49;97762.66;;;1.87;100.00
37634;BME280;32048;49.902;22.508;2023-02-02T11:45:21;97750.88;;;1.77;100.00
37634;BME280;32048;49.902;22.508;2023-02-02T11:47:50;97752.81;;;1.71;100.00
37634;BME280;32048;49.902;22.508;2023-02-02T11:50:25;97746.91;;;1.65;100.00
37634;BME280;32048;49.902;22.508;2023-02-02T11:52:54;97746.47;;;1.53;100.00
37634;BME280;32048;49.902;22.508;2023-02-02T11:55:26;97749.25;;;1.47;100.00
37634;BME280;32048;49.902;22.508;2023-02-02T11:58:17;97758.22;;;1.36;100.00
37634;BME280;32048;49.902;22.508;2023-02-02T12:00:47;97750.69;;;1.29;100.00
37634;BME280;32048;49.902;22.508;2023-02-02T12:05:52;97754.13;;;1.29;100.00
37634;BME280;32048;49.902;22.508;2023-02-02T12:08:19;97738.00;;;1.18;100.00
37634;BME280;32048;49.902;22.508;2023-02-02T12:10:57;97743.38;;;1.12;100.00
37634;BME280;32048;49.902;22.508;2023-02-02T12:18:40;97747.84;;;1.08;100.00
37634;BME280;32048;49.902;22.508;2023-02-02T12:21:41;97752.41;;;1.00;100.00
37634;BME280;32048;49.902;22.508;2023-02-02T12:26:44;97757.78;;;0.94;100.00
37634;BME280;32048;49.902;22.508;2023-02-02T12:29:26;97754.63;;;0.82;100.00
37634;BME280;32048;49.902;22.508;2023-02-02T12:35:30;97761.16;;;0.68;100.00
37634;BME280;32048;49.902;22.508;2023-02-02T12:40:45;97759.53;;;0.64;100.00
37634;BME280;32048;49.902;22.508;2023-02-02T12:43:22;97751.63;;;0.67;100.00
37634;BME280;32048;49.902;22.508;2023-02-02T12:51:24;97767.69;;;0.81;100.00
37634;BME280;32048;49.902;22.508;2023-02-02T13:00:15;97768.41;;;0.86;100.00
37634;BME280;32048;49.902;22.508;2023-02-02T13:08:20;97774.25;;;0.94;100.00
37634;BME280;32048;49.902;22.508;2023-02-02T13:10:53;97769.09;;;0.93;100.00
37634;BME280;32048;49.902;22.508;2023-02-02T13:13:24;97782.25;;;0.87;100.00
37634;BME280;32048;49.902;22.508;2023-02-02T13:15:59;97784.84;;;0.87;100.00
37634;BME280;32048;49.902;22.508;2023-02-02T13:18:34;97777.97;;;0.86;100.00
37634;BME280;32048;49.902;22.508;2023-02-02T13:21:06;97786.47;;;0.91;100.00
37634;BME280;32048;49.902;22.508;2023-02-02T13:23:43;97778.63;;;0.92;100.00
37634;BME280;32048;49.902;22.508;2023-02-02T13:26:20;97787.25;;;0.94;100.00
37634;BME280;32048;49.902;22.508;2023-02-02T13:31:42;97787.16;;;0.97;100.00
37634;BME280;32048;49.902;22.508;2023-02-02T13:36:47;97789.72;;;0.99;100.00
37634;BME280;32048;49.902;22.508;2023-02-02T13:39:21;97787.09;;;0.99;100.00
37634;BME280;32048;49.902;22.508;2023-02-02T13:41:50;97799.19;;;1.00;100.00
37634;BME280;32048;49.902;22.508;2023-02-02T13:44:20;97799.84;;;1.08;100.00
37634;BME280;32048;49.902;22.508;2023-02-02T13:47:15;97796.31;;;1.09;100.00
37634;BME280;32048;49.902;22.508;2023-02-02T13:49:46;97803.09;;;1.15;100.00
37634;BME280;32048;49.902;22.508;2023-02-02T14:01:19;97817.09;;;1.11;100.00
37634;BME280;32048;49.902;22.508;2023-02-02T14:03:54;97818.78;;;1.12;100.00
37634;BME280;32048;49.902;22.508;2023-02-02T14:06:24;97831.78;;;1.12;100.00
37634;BME280;32048;49.902;22.508;2023-02-02T14:08:56;97823.97;;;1.12;100.00
37634;BME280;32048;49.902;22.508;2023-02-02T14:11:33;97829.09;;;1.15;100.00
37634;BME280;32048;49.902;22.508;2023-02-02T14:14:12;97842.03;;;1.16;100.00
37634;BME280;32048;49.902;22.508;2023-02-02T14:17:06;97839.44;;;1.16;100.00
37634;BME280;32048;49.902;22.508;2023-02-02T14:28:06;97848.25;;;1.12;100.00
37634;BME280;32048;49.902;22.508;2023-02-02T14:30:35;97856.84;;;1.14;100.00
37634;BME280;32048;49.902;22.508;2023-02-02T14:38:30;97870.78;;;1.12;100.00
37634;BME280;32048;49.902;22.508;2023-02-02T14:43:49;97883.78;;;1.12;100.00
37634;BME280;32048;49.902;22.508;2023-02-02T14:46:25;97887.25;;;1.12;100.00
37634;BME280;32048;49.902;22.508;2023-02-02T14:51:27;97887.13;;;1.17;100.00
37634;BME280;32048;49.902;22.508;2023-02-02T14:53:59;97885.41;;;1.16;100.00
37634;BME280;32048;49.902;22.508;2023-02-02T14:56:45;97891.50;;;1.15;100.00
37634;BME280;32048;49.902;22.508;2023-02-02T14:59:37;97897.53;;;1.17;100.00
37634;BME280;32048;49.902;22.508;2023-02-02T15:02:13;97907.06;;;1.16;100.00
37634;BME280;32048;49.902;22.508;2023-02-02T15:04:41;97914.72;;;1.21;100.00
37634;BME280;32048;49.902;22.508;2023-02-02T15:09:53;97916.47;;;1.20;100.00
37634;BME280;32048;49.902;22.508;2023-02-02T15:20:21;97939.75;;;1.25;100.00
37634;BME280;32048;49.902;22.508;2023-02-02T15:22:56;97945.88;;;1.24;100.00
37634;BME280;32048;49.902;22.508;2023-02-02T15:33:40;97973.56;;;1.25;100.00
37634;BME280;32048;49.902;22.508;2023-02-02T15:36:38;97976.13;;;1.27;100.00
37634;BME280;32048;49.902;22.508;2023-02-02T15:39:11;97987.38;;;1.27;100.00
37634;BME280;32048;49.902;22.508;2023-02-02T15:41:43;97983.84;;;1.30;100.00
37634;BME280;32048;49.902;22.508;2023-02-02T15:44:25;98004.72;;;1.28;100.00
37634;BME280;32048;49.902;22.508;2023-02-02T15:46:54;98006.44;;;1.28;100.00
37634;BME280;32048;49.902;22.508;2023-02-02T15:49:28;98010.72;;;1.30;100.00
37634;BME280;32048;49.902;22.508;2023-02-02T15:52:13;98014.09;;;1.32;100.00
37634;BME280;32048;49.902;22.508;2023-02-02T15:54:58;98028.88;;;1.32;100.00